Terminal Aerodrome Forecast
Issued by NWS Greer, SC

Home | Current Version | Previous Version | Text Only | Print | Product List | Glossary On
Versions: 1 2 3 4 5 6 7 8 9 10 11 12 13 14 15 16 17 18 19
958
FTUS42 KGSP 300856 AAB
TAFGSP
TAF AMD
KGSP 300856Z 3009/3106 12006KT P6SM BKN012
     FM301300 08006KT P6SM VCSH OVC007
     FM301600 10007KT P6SM -SHRA OVC008
     FM301900 12007KT 5SM -SHRA OVC012 PROB30 3019/3023 3SM -TSRA
      OVC010CB
     FM310100 13007KT 4SM SHRA VCTS OVC008CB=

USA.gov is the U.S. government's official web portal to all federal, state and local government web resources and services.